Time;durP1;ratioP1;P1;durP2;ratioP2;P2;SDS_P1;SDS_P2;PMS_P1;PMS_P2;Temp;Humidity;BMP_temperature;BMP_pressure;BME280_temperature;BME280_humidity;BME280_pressure;Samples;Min_cycle;Max_cycle;Signal;HPM_P1;HPM_P2
2022/03/16 10:58:40;;;;;;;46.57;15.37;;;9.80;99.70;;;;;;5129605;27;20810;-66
2022/03/16 11:01:07;;;;;;;40.90;15.70;;;10.10;99.70;;;;;;5129420;28;20450;-64
2022/03/16 11:03:36;;;;;;;39.03;16.20;;;10.40;99.70;;;;;;5128671;28;20440;-64
2022/03/16 11:06:05;;;;;;;39.50;14.90;;;10.60;99.70;;;;;;5128715;27;20444;-64
2022/03/16 11:08:35;;;;;;;39.87;16.87;;;10.60;99.70;;;;;;5129273;27;20437;-64
2022/03/16 11:13:27;;;;;;;39.97;15.80;;;10.50;99.70;;;;;;5129298;27;20985;-64
2022/03/16 11:13:50;;;;;;;38.10;15.90;;;10.70;99.70;;;;;;5129026;28;20823;-65
2022/03/16 11:16:20;;;;;;;41.70;16.77;;;10.60;99.70;;;;;;5128712;27;20452;-64
2022/03/16 11:18:48;;;;;;;50.43;16.53;;;10.60;99.70;;;;;;5129003;27;20539;-65
2022/03/16 11:21:22;;;;;;;42.70;16.20;;;10.70;99.70;;;;;;5129163;27;20439;-64
2022/03/16 11:26:43;;;;;;;41.13;15.40;;;10.90;99.70;;;;;;5128668;28;20443;-64
2022/03/16 11:29:22;;;;;;;42.00;15.90;;;10.90;99.70;;;;;;5128956;27;20851;-64
2022/03/16 11:31:49;;;;;;;35.03;15.27;;;11.10;99.70;;;;;;5128861;27;20436;-64
2022/03/16 11:34:22;;;;;;;36.97;15.20;;;10.90;99.70;;;;;;5128993;27;20440;-65
2022/03/16 11:37:01;;;;;;;38.67;15.70;;;10.90;99.70;;;;;;5127872;27;20899;-64
2022/03/16 11:39:40;;;;;;;39.10;15.53;;;10.80;99.70;;;;;;5128809;27;20440;-66
2022/03/16 11:42:08;;;;;;;36.73;15.13;;;10.60;99.70;;;;;;5128578;27;20515;-65
2022/03/16 11:44:38;;;;;;;36.63;14.90;;;10.60;99.70;;;;;;5128707;27;20811;-64
2022/03/16 11:47:36;;;;;;;39.23;15.93;;;10.80;99.70;;;;;;5128494;27;20460;-64
2022/03/16 11:50:21;;;;;;;37.17;15.90;;;10.90;99.70;;;;;;5128408;27;20436;-64
2022/03/16 11:53:00;;;;;;;38.00;15.37;;;10.90;99.70;;;;;;5128339;27;20438;-64
2022/03/16 11:55:44;;;;;;;37.63;14.87;;;10.80;99.70;;;;;;5128094;27;21091;-65
2022/03/16 11:58:29;;;;;;;43.60;15.77;;;10.80;99.70;;;;;;5128076;27;20536;-64
2022/03/16 12:01:29;;;;;;;32.17;14.63;;;10.90;99.70;;;;;;5127633;27;20444;-65
2022/03/16 12:04:11;;;;;;;39.83;16.27;;;10.80;99.70;;;;;;5128113;27;20441;-64
2022/03/16 12:06:53;;;;;;;36.60;14.67;;;10.90;99.70;;;;;;5127469;27;20462;-64
2022/03/16 12:09:25;;;;;;;36.73;14.93;;;11.10;99.70;;;;;;5118345;27;20813;-65
2022/03/16 12:15:05;;;;;;;34.77;15.17;;;11.40;99.70;;;;;;5114134;28;20441;-64
2022/03/16 12:17:33;;;;;;;33.97;14.23;;;11.40;99.70;;;;;;5114165;28;20488;-64
2022/03/16 12:20:11;;;;;;;33.73;14.30;;;11.50;99.70;;;;;;5114431;28;20448;-65
2022/03/16 12:22:39;;;;;;;34.30;14.30;;;11.50;99.70;;;;;;5114193;27;20459;-64
2022/03/16 12:25:31;;;;;;;38.50;15.87;;;11.50;99.70;;;;;;5113803;28;20444;-63
2022/03/16 12:30:46;;;;;;;35.63;14.73;;;11.20;99.70;;;;;;5114246;28;20459;-64
2022/03/16 12:33:16;;;;;;;35.57;14.40;;;11.20;99.70;;;;;;5113882;28;20441;-64
2022/03/16 12:35:44;;;;;;;39.10;16.13;;;11.20;99.70;;;;;;5112979;28;20967;-65
2022/03/16 12:38:10;;;;;;;35.70;15.50;;;11.30;99.70;;;;;;5113585;28;21018;-64
2022/03/16 12:42:30;;;;;;;39.80;14.97;;;11.40;99.70;;;;;;5113499;28;20441;-65
2022/03/16 12:43:27;;;;;;;36.20;15.10;;;11.30;99.70;;;;;;5108793;28;20448;-64
2022/03/16 12:45:59;;;;;;;35.53;14.93;;;11.30;99.70;;;;;;5113030;28;20484;-66
2022/03/16 12:48:33;;;;;;;34.77;14.40;;;11.20;99.70;;;;;;5113515;28;20441;-64
2022/03/16 12:51:00;;;;;;;33.37;14.10;;;11.20;99.70;;;;;;5113692;28;20445;-64
2022/03/16 12:53:46;;;;;;;32.67;14.00;;;11.30;99.70;;;;;;5113566;28;20861;-64
2022/03/16 12:56:15;;;;;;;41.77;18.20;;;11.30;99.70;;;;;;5113108;27;20464;-65
2022/03/16 12:58:43;;;;;;;29.50;13.57;;;11.40;99.70;;;;;;5102009;27;20588;-64
2022/03/16 13:01:17;;;;;;;41.20;15.93;;;11.40;99.70;;;;;;5092984;28;20445;-64
2022/03/16 13:03:46;;;;;;;40.73;15.27;;;11.50;99.70;;;;;;5092733;28;20441;-64
2022/03/16 13:06:17;;;;;;;33.40;14.30;;;11.60;99.70;;;;;;5092302;28;20462;-64
2022/03/16 13:08:49;;;;;;;38.30;15.73;;;11.70;99.70;;;;;;5092781;28;20534;-64
2022/03/16 13:11:22;;;;;;;31.00;14.63;;;11.70;99.70;;;;;;5092867;28;20539;-64
2022/03/16 13:14:01;;;;;;;34.93;13.87;;;11.60;99.70;;;;;;5092632;28;20916;-64
2022/03/16 13:16:36;;;;;;;27.73;12.40;;;11.70;99.70;;;;;;5092362;28;20720;-64
2022/03/16 13:19:05;;;;;;;30.87;14.10;;;11.50;99.70;;;;;;5110384;28;20483;-64
2022/03/16 13:21:34;;;;;;;31.57;13.63;;;11.60;99.70;;;;;;5111877;28;20444;-64
2022/03/16 13:24:06;;;;;;;32.70;14.73;;;11.70;99.70;;;;;;5112938;28;20872;-64
2022/03/16 13:26:34;;;;;;;32.93;15.80;;;11.80;99.70;;;;;;5112678;28;20854;-64
2022/03/16 13:29:03;;;;;;;31.13;13.40;;;11.80;99.70;;;;;;5107747;28;20470;-64
2022/03/16 13:31:32;;;;;;;32.27;13.20;;;12.00;99.70;;;;;;5092434;28;20450;-64
2022/03/16 13:34:01;;;;;;;34.30;14.23;;;11.90;99.70;;;;;;5111506;28;20494;-65
2022/03/16 13:36:34;;;;;;;31.30;13.17;;;12.00;99.70;;;;;;5111414;28;20548;-64
2022/03/16 13:39:15;;;;;;;34.63;14.23;;;12.20;99.70;;;;;;5112297;28;20433;-64
2022/03/16 13:42:07;;;;;;;35.53;13.80;;;12.20;99.70;;;;;;5112732;28;20464;-64
2022/03/16 13:44:37;;;;;;;37.73;13.60;;;11.90;99.70;;;;;;5112494;28;20502;-64
2022/03/16 13:47:18;;;;;;;35.60;14.50;;;11.90;99.70;;;;;;5112082;28;20465;-65
2022/03/16 13:49:47;;;;;;;30.40;13.40;;;11.90;99.70;;;;;;5096662;28;20537;-64
2022/03/16 13:52:18;;;;;;;35.37;15.40;;;12.00;99.70;;;;;;5092175;28;20449;-65
2022/03/16 13:54:45;;;;;;;33.53;14.40;;;12.10;99.70;;;;;;5104268;28;20480;-64
2022/03/16 13:57:13;;;;;;;31.97;14.10;;;11.90;99.70;;;;;;5112136;28;21149;-64
2022/03/16 13:59:41;;;;;;;35.77;15.30;;;12.00;99.70;;;;;;5112159;28;21006;-64
2022/03/16 14:02:12;;;;;;;36.87;15.40;;;11.90;99.70;;;;;;5112092;28;20528;-64
2022/03/16 14:04:42;;;;;;;36.50;15.30;;;12.00;99.70;;;;;;5112358;28;20445;-64
2022/03/16 14:07:20;;;;;;;36.13;15.60;;;12.00;99.70;;;;;;5111111;28;20967;-64
2022/03/16 14:09:47;;;;;;;37.90;14.43;;;11.90;99.70;;;;;;5091594;28;20541;-64
2022/03/16 14:12:18;;;;;;;36.70;15.20;;;11.80;99.70;;;;;;5091737;28;20441;-64
2022/03/16 14:14:46;;;;;;;38.23;14.97;;;11.60;99.70;;;;;;5091713;28;20519;-65
2022/03/16 14:17:13;;;;;;;33.27;15.03;;;11.60;99.70;;;;;;5091300;28;20569;-64
2022/03/16 14:19:43;;;;;;;37.23;14.90;;;11.70;99.70;;;;;;5091477;28;20453;-64
2022/03/16 14:22:13;;;;;;;33.70;14.87;;;11.80;99.70;;;;;;5090349;28;20499;-64
2022/03/16 14:24:41;;;;;;;34.60;14.87;;;11.80;99.70;;;;;;5091399;28;20454;-64
2022/03/16 14:27:18;;;;;;;36.90;15.83;;;11.90;99.70;;;;;;5091074;28;20462;-64
2022/03/16 14:29:45;;;;;;;38.20;16.00;;;11.80;99.70;;;;;;5091217;28;20491;-63
2022/03/16 14:32:12;;;;;;;34.20;15.07;;;11.90;99.70;;;;;;5105569;28;21098;-64
2022/03/16 14:34:40;;;;;;;35.00;15.70;;;11.90;99.70;;;;;;5111217;28;20441;-63
2022/03/16 14:37:06;;;;;;;32.70;14.93;;;11.70;99.70;;;;;;5110898;28;21253;-64
2022/03/16 14:39:34;;;;;;;32.27;14.17;;;11.50;99.70;;;;;;5111561;28;20433;-64
2022/03/16 14:42:02;;;;;;;33.13;14.53;;;11.40;99.70;;;;;;5098359;28;20564;-63
2022/03/16 14:44:29;;;;;;;34.17;14.73;;;11.40;99.70;;;;;;5091275;28;20442;-64
2022/03/16 14:46:56;;;;;;;32.53;14.40;;;11.40;99.70;;;;;;5090853;28;20461;-64
2022/03/16 14:49:22;;;;;;;35.47;13.00;;;11.40;99.70;;;;;;5091028;28;20478;-62
2022/03/16 14:51:49;;;;;;;31.67;14.80;;;11.50;99.70;;;;;;5106486;28;20452;-64
2022/03/16 14:54:16;;;;;;;37.20;15.30;;;11.60;99.70;;;;;;5111350;28;20946;-64
2022/03/16 14:56:43;;;;;;;33.70;13.20;;;11.70;99.70;;;;;;5111131;28;20878;-64
2022/03/16 14:59:11;;;;;;;31.70;14.30;;;11.70;99.70;;;;;;5111294;28;20437;-64
2022/03/16 15:01:37;;;;;;;32.97;14.43;;;11.50;99.70;;;;;;5095194;28;20449;-64
2022/03/16 15:04:04;;;;;;;29.77;14.40;;;11.50;99.70;;;;;;5090902;28;20438;-64
2022/03/16 15:06:31;;;;;;;36.63;15.33;;;11.40;99.70;;;;;;5090064;28;20465;-65
2022/03/16 15:08:58;;;;;;;31.30;14.17;;;11.40;99.70;;;;;;5103090;28;20479;-64
2022/03/16 15:11:25;;;;;;;41.60;15.33;;;11.30;99.70;;;;;;5111275;28;20512;-64
2022/03/16 15:13:52;;;;;;;34.63;14.73;;;11.30;99.70;;;;;;5110763;28;20808;-64
2022/03/16 15:16:22;;;;;;;34.93;15.53;;;11.30;99.70;;;;;;5110989;28;20480;-65
2022/03/16 15:18:49;;;;;;;31.60;14.80;;;11.40;99.70;;;;;;5104621;28;20541;-64
2022/03/16 15:21:16;;;;;;;35.53;14.57;;;11.30;99.70;;;;;;5090931;28;20446;-63
2022/03/16 15:23:43;;;;;;;37.57;15.20;;;11.30;99.70;;;;;;5090863;28;20442;-62
2022/03/16 15:26:09;;;;;;;35.20;14.90;;;11.40;99.70;;;;;;5090439;28;20465;-63
2022/03/16 15:28:36;;;;;;;35.23;14.90;;;11.50;99.70;;;;;;5095660;28;20477;-63
2022/03/16 15:31:03;;;;;;;31.57;14.60;;;11.50;99.70;;;;;;5111331;28;20444;-60
2022/03/16 15:33:31;;;;;;;36.97;15.30;;;11.50;99.70;;;;;;5111080;28;20445;-63
2022/03/16 15:35:57;;;;;;;30.33;14.03;;;11.40;99.70;;;;;;5110538;28;20441;-62
2022/03/16 15:38:24;;;;;;;32.73;15.00;;;11.40;99.70;;;;;;5104289;28;20468;-63
2022/03/16 15:43:35;;;;;;;35.00;14.83;;;11.40;99.70;;;;;;5107046;28;20424;-63
2022/03/16 15:46:02;;;;;;;31.50;15.00;;;11.30;99.70;;;;;;5099629;28;20815;-63
2022/03/16 15:48:28;;;;;;;31.77;13.90;;;11.30;99.70;;;;;;5112552;28;20514;-63
2022/03/16 15:50:57;;;;;;;31.63;14.40;;;11.40;99.70;;;;;;5114685;28;20447;-64
2022/03/16 15:53:23;;;;;;;30.13;13.97;;;11.40;99.70;;;;;;5114124;28;20901;-63
2022/03/16 15:55:50;;;;;;;28.77;13.80;;;11.40;99.70;;;;;;5113903;28;20448;-63
2022/03/16 15:58:17;;;;;;;33.63;14.53;;;11.40;99.70;;;;;;5112308;28;20502;-63
2022/03/16 16:00:44;;;;;;;33.90;15.10;;;11.40;99.70;;;;;;5114253;28;20437;-63
2022/03/16 16:03:10;;;;;;;31.77;14.20;;;11.40;99.70;;;;;;5111682;28;20440;-63
2022/03/16 16:05:39;;;;;;;31.00;14.13;;;11.40;99.70;;;;;;5113220;28;20445;-63
2022/03/16 16:08:08;;;;;;;28.93;13.03;;;11.30;99.70;;;;;;5110878;28;20481;-64
2022/03/16 16:10:35;;;;;;;32.87;14.13;;;11.20;99.70;;;;;;5111163;28;20940;-64
2022/03/16 16:13:02;;;;;;;34.30;14.60;;;11.10;99.70;;;;;;5113219;28;20429;-64
2022/03/16 16:15:31;;;;;;;32.20;13.30;;;11.10;99.70;;;;;;5110427;28;20441;-63
2022/03/16 16:17:59;;;;;;;34.77;13.90;;;11.10;99.70;;;;;;5112823;28;20489;-63
2022/03/16 16:20:26;;;;;;;31.93;13.77;;;11.10;99.70;;;;;;5110984;28;20492;-61
2022/03/16 16:22:53;;;;;;;33.27;14.40;;;11.10;99.70;;;;;;5108359;27;20469;-65
2022/03/16 16:25:23;;;;;;;30.27;13.90;;;11.10;99.70;;;;;;5108631;28;20445;-64
2022/03/16 16:27:50;;;;;;;31.37;14.30;;;11.10;99.70;;;;;;5107816;27;20511;-64
2022/03/16 16:30:19;;;;;;;31.77;12.90;;;11.10;99.70;;;;;;5106976;27;20902;-64
2022/03/16 16:32:47;;;;;;;30.20;13.27;;;11.00;99.70;;;;;;5112961;28;20449;-64
2022/03/16 16:35:14;;;;;;;30.57;13.43;;;11.00;99.70;;;;;;5109924;27;21017;-63
2022/03/16 16:37:41;;;;;;;33.70;14.07;;;11.00;99.70;;;;;;5102705;28;20457;-64
2022/03/16 16:40:09;;;;;;;32.53;13.90;;;10.90;99.70;;;;;;5114084;27;20441;-64
2022/03/16 16:45:21;;;;;;;28.90;12.97;;;10.90;99.70;;;;;;5102559;28;20452;-63
2022/03/16 16:47:49;;;;;;;31.00;13.97;;;10.90;99.70;;;;;;5094176;28;21204;-63
2022/03/16 16:50:15;;;;;;;31.67;14.03;;;10.80;99.70;;;;;;5114982;27;20833;-63
2022/03/16 16:52:43;;;;;;;30.30;13.73;;;10.80;99.70;;;;;;5113373;27;20441;-64
2022/03/16 16:55:09;;;;;;;29.63;13.70;;;10.80;99.70;;;;;;5109628;28;20451;-63
2022/03/16 16:57:37;;;;;;;32.20;14.50;;;10.80;99.70;;;;;;5113318;27;20469;-64
2022/03/16 17:00:06;;;;;;;30.47;13.90;;;10.80;99.70;;;;;;5108087;28;20929;-63
2022/03/16 17:02:39;;;;;;;37.13;14.93;;;10.80;99.70;;;;;;5112650;28;20441;-63
2022/03/16 17:05:07;;;;;;;29.87;14.20;;;10.70;99.70;;;;;;5103481;28;20449;-63
2022/03/16 17:07:34;;;;;;;30.77;13.90;;;10.60;99.70;;;;;;5110823;28;20468;-64
2022/03/16 17:10:01;;;;;;;31.30;14.53;;;10.60;99.70;;;;;;5112356;28;20481;-64
2022/03/16 17:12:27;;;;;;;34.27;14.17;;;10.60;99.70;;;;;;5109507;28;22261;-64
2022/03/16 17:14:55;;;;;;;34.53;14.60;;;10.60;99.70;;;;;;5105935;27;20452;-64
2022/03/16 17:17:22;;;;;;;29.10;14.20;;;10.60;99.70;;;;;;5109743;28;20469;-66
2022/03/16 17:19:50;;;;;;;37.53;15.13;;;10.60;99.70;;;;;;5110006;27;20449;-64
2022/03/16 17:22:16;;;;;;;31.90;15.03;;;10.50;99.70;;;;;;5108670;28;20496;-65
2022/03/16 17:24:43;;;;;;;32.70;14.90;;;10.50;99.70;;;;;;5106483;28;20474;-64
2022/03/16 17:27:12;;;;;;;32.03;15.03;;;10.40;99.70;;;;;;5111980;28;20461;-64
2022/03/16 17:29:38;;;;;;;35.03;15.17;;;10.40;99.70;;;;;;5111232;28;20537;-64
2022/03/16 17:32:07;;;;;;;32.23;13.83;;;10.30;99.70;;;;;;5108919;28;20465;-65
2022/03/16 17:34:34;;;;;;;34.57;16.53;;;10.30;99.70;;;;;;5110819;28;20984;-64
2022/03/16 17:37:00;;;;;;;34.07;13.73;;;10.30;99.70;;;;;;5106689;28;20466;-64
2022/03/16 17:39:28;;;;;;;32.03;14.43;;;10.30;99.70;;;;;;5096311;28;20452;-64
2022/03/16 17:47:24;;;;;;;32.17;14.70;;;10.30;99.70;;;;;;5109806;28;20464;-65
2022/03/16 17:49:51;;;;;;;36.37;16.80;;;10.20;99.70;;;;;;5104830;28;20485;-64
2022/03/16 17:52:19;;;;;;;44.90;18.90;;;10.20;99.70;;;;;;5106451;28;20461;-64
2022/03/16 17:54:46;;;;;;;31.20;15.07;;;10.20;99.70;;;;;;5104545;28;20580;-58
2022/03/16 17:57:12;;;;;;;37.43;16.10;;;10.20;99.70;;;;;;5098039;27;20516;-65
2022/03/16 17:59:38;;;;;;;37.47;15.97;;;10.20;99.70;;;;;;5101628;27;20549;-63
2022/03/16 18:02:06;;;;;;;34.57;14.97;;;10.20;99.70;;;;;;5105228;27;20200;-64
2022/03/16 18:04:34;;;;;;;39.30;15.67;;;10.10;99.70;;;;;;5108770;28;20449;-63
2022/03/16 18:07:01;;;;;;;34.87;16.30;;;10.10;99.70;;;;;;5106423;28;20464;-63
2022/03/16 18:09:30;;;;;;;42.00;16.57;;;10.10;99.70;;;;;;5110014;28;21076;-64
2022/03/16 18:14:42;;;;;;;44.63;18.50;;;10.10;99.70;;;;;;5105591;28;20459;-64
2022/03/16 18:17:08;;;;;;;43.37;19.40;;;10.10;99.70;;;;;;5107288;28;20483;-64
2022/03/16 18:19:36;;;;;;;41.47;18.87;;;10.00;99.70;;;;;;5110316;28;20445;-63
2022/03/16 18:24:48;;;;;;;41.50;17.80;;;10.00;99.70;;;;;;5106583;28;20439;-63
2022/03/16 18:27:15;;;;;;;44.00;19.23;;;10.00;99.70;;;;;;5110164;28;20465;-64
2022/03/16 18:29:42;;;;;;;38.80;18.07;;;10.00;99.70;;;;;;5110628;28;20491;-63
2022/03/16 18:32:09;;;;;;;35.40;16.23;;;10.00;99.70;;;;;;5104976;28;20449;-63
2022/03/16 18:34:37;;;;;;;40.50;18.07;;;10.00;99.70;;;;;;5107712;28;20445;-63
2022/03/16 18:37:04;;;;;;;41.20;17.17;;;10.00;99.70;;;;;;5110006;28;21052;-63
2022/03/16 18:39:31;;;;;;;39.87;17.60;;;10.00;99.70;;;;;;5108357;28;20947;-62
2022/03/16 18:41:57;;;;;;;40.07;17.87;;;10.00;99.70;;;;;;5113993;27;20440;-63
2022/03/16 18:44:24;;;;;;;36.07;17.13;;;10.00;99.70;;;;;;5097792;28;20446;-63
2022/03/16 18:46:51;;;;;;;39.10;17.10;;;9.90;99.70;;;;;;5100160;27;20464;-63
2022/03/16 18:49:17;;;;;;;37.30;16.70;;;10.00;99.70;;;;;;5104583;28;20503;-64
2022/03/16 18:54:29;;;;;;;40.73;18.03;;;9.90;99.70;;;;;;5106383;28;20509;-63
2022/03/16 18:56:56;;;;;;;40.60;18.87;;;9.90;99.70;;;;;;5104777;28;20529;-64
2022/03/16 18:59:22;;;;;;;38.80;18.57;;;9.90;99.70;;;;;;5106863;28;20461;-64
2022/03/16 19:01:52;;;;;;;46.63;19.70;;;9.90;99.70;;;;;;5103647;28;20453;-63
2022/03/16 19:04:19;;;;;;;44.80;19.07;;;9.90;99.70;;;;;;5108795;28;20441;-63
2022/03/16 19:06:47;;;;;;;42.60;20.07;;;9.90;99.70;;;;;;5106141;28;20461;-63
2022/03/16 19:09:16;;;;;;;43.53;19.00;;;9.90;99.70;;;;;;5105962;28;20512;-63
2022/03/16 19:14:27;;;;;;;51.17;21.10;;;9.80;99.70;;;;;;5102979;28;21223;-63
2022/03/16 19:16:54;;;;;;;47.70;21.30;;;9.80;99.70;;;;;;5104981;28;20490;-64
2022/03/16 19:19:22;;;;;;;47.23;21.17;;;9.90;99.70;;;;;;5110714;28;20444;-64
2022/03/16 19:21:51;;;;;;;50.97;22.67;;;9.80;99.70;;;;;;5105403;28;20877;-64
2022/03/16 19:24:20;;;;;;;58.40;24.63;;;9.80;99.70;;;;;;5114415;28;20449;-63
2022/03/16 19:26:47;;;;;;;49.43;22.40;;;9.80;99.70;;;;;;5110922;28;20503;-64
2022/03/16 19:29:14;;;;;;;52.67;23.90;;;9.80;99.70;;;;;;5114295;27;20480;-63
2022/03/16 19:31:41;;;;;;;65.80;24.17;;;9.80;99.70;;;;;;5113257;28;20847;-64
2022/03/16 19:34:09;;;;;;;70.63;27.70;;;9.80;99.70;;;;;;5109764;28;20476;-64
2022/03/16 19:36:35;;;;;;;54.57;21.50;;;9.80;99.70;;;;;;5102789;27;20465;-65
2022/03/16 19:39:06;;;;;;;63.47;25.43;;;9.80;99.70;;;;;;5107906;28;20453;-63
2022/03/16 19:41:33;;;;;;;59.10;24.93;;;9.80;99.70;;;;;;5103162;28;20456;-64
2022/03/16 19:44:00;;;;;;;77.67;30.47;;;9.80;99.70;;;;;;5105085;28;21014;-64
2022/03/16 19:46:26;;;;;;;58.00;25.20;;;9.80;99.70;;;;;;5106203;27;20468;-65
2022/03/16 19:48:53;;;;;;;54.10;23.30;;;9.80;99.70;;;;;;5099262;28;20455;-63
2022/03/16 19:51:23;;;;;;;49.30;21.27;;;9.80;99.70;;;;;;5110991;28;20982;-64
2022/03/16 19:53:51;;;;;;;50.83;21.70;;;9.70;99.70;;;;;;5113177;27;20441;-64
2022/03/16 19:56:19;;;;;;;50.53;21.80;;;9.70;99.70;;;;;;5112841;28;20983;-64
2022/03/16 19:58:46;;;;;;;49.13;21.60;;;9.70;99.70;;;;;;5112300;28;20452;-64
2022/03/16 20:01:13;;;;;;;50.20;21.10;;;9.60;99.70;;;;;;5114525;28;20502;-64
2022/03/16 20:03:41;;;;;;;47.87;21.43;;;9.60;99.70;;;;;;5113803;28;20449;-64
2022/03/16 20:06:10;;;;;;;47.20;21.70;;;9.60;99.70;;;;;;5113306;27;20483;-64
2022/03/16 20:08:37;;;;;;;50.80;20.90;;;9.60;99.70;;;;;;5104025;28;20465;-64
2022/03/16 20:11:04;;;;;;;49.20;22.67;;;9.60;99.70;;;;;;5105070;28;20502;-63
2022/03/16 20:13:33;;;;;;;49.97;22.00;;;9.60;99.70;;;;;;5111709;28;20464;-64
2022/03/16 20:15:59;;;;;;;49.40;22.13;;;9.60;99.70;;;;;;5096072;28;20444;-65
2022/03/16 20:18:26;;;;;;;55.50;24.40;;;9.60;99.70;;;;;;5107910;28;20441;-64
2022/03/16 20:20:56;;;;;;;49.40;22.30;;;9.60;99.70;;;;;;5114089;28;20788;-64
2022/03/16 20:23:23;;;;;;;52.17;23.67;;;9.50;99.70;;;;;;5112472;27;20445;-64
2022/03/16 20:25:53;;;;;;;52.53;23.73;;;9.50;99.70;;;;;;5113514;28;20441;-64
2022/03/16 20:28:21;;;;;;;52.27;23.23;;;9.50;99.70;;;;;;5113114;28;20947;-65
2022/03/16 20:30:49;;;;;;;63.60;26.93;;;9.40;99.70;;;;;;5113239;28;20487;-64
2022/03/16 20:33:17;;;;;;;53.80;21.97;;;9.50;99.70;;;;;;5112687;28;20463;-64
2022/03/16 20:35:44;;;;;;;53.27;23.73;;;9.50;99.70;;;;;;5112070;28;20441;-65
2022/03/16 20:38:11;;;;;;;51.17;23.20;;;9.40;99.70;;;;;;5111844;28;20847;-65
2022/03/16 20:40:38;;;;;;;59.20;25.30;;;9.40;99.70;;;;;;5113242;28;20437;-65
2022/03/16 20:43:05;;;;;;;54.70;25.00;;;9.40;99.70;;;;;;5107019;28;20456;-66
2022/03/16 20:45:34;;;;;;;57.50;24.40;;;9.40;99.70;;;;;;5101351;28;20461;-65
2022/03/16 20:48:03;;;;;;;54.67;22.87;;;9.40;99.70;;;;;;5113151;28;20465;-64
2022/03/16 20:50:29;;;;;;;54.00;24.17;;;9.40;99.70;;;;;;5108381;28;21030;-64
2022/03/16 20:52:56;;;;;;;58.77;25.10;;;9.40;99.70;;;;;;5110704;28;20941;-65
2022/03/16 20:55:23;;;;;;;57.83;24.37;;;9.40;99.70;;;;;;5100652;28;20555;-62
2022/03/16 20:57:49;;;;;;;56.80;24.80;;;9.40;99.70;;;;;;5111176;28;20522;-63
2022/03/16 21:03:02;;;;;;;57.23;23.87;;;9.40;99.70;;;;;;5092292;28;20413;-65
2022/03/16 21:05:29;;;;;;;56.67;24.10;;;9.40;99.70;;;;;;5100260;28;20458;-64
2022/03/16 21:07:57;;;;;;;57.00;24.50;;;9.40;99.70;;;;;;5108392;28;20461;-64
2022/03/16 21:10:24;;;;;;;57.60;23.73;;;9.30;99.70;;;;;;5113114;28;21003;-64
2022/03/16 21:12:51;;;;;;;54.70;24.40;;;9.30;99.70;;;;;;5108825;28;20933;-66
2022/03/16 21:15:18;;;;;;;55.60;23.40;;;9.30;99.70;;;;;;5094177;28;20442;-64
2022/03/16 21:17:45;;;;;;;58.97;26.07;;;9.30;99.70;;;;;;5112070;28;20893;-64
2022/03/16 21:20:14;;;;;;;60.07;26.00;;;9.30;99.70;;;;;;5114124;28;20437;-64
2022/03/16 21:22:41;;;;;;;57.67;24.37;;;9.30;99.70;;;;;;5105051;28;20454;-64
2022/03/16 21:25:10;;;;;;;59.50;25.70;;;9.30;99.70;;;;;;5112442;28;20959;-64
2022/03/16 21:27:39;;;;;;;64.13;25.93;;;9.30;99.70;;;;;;5109795;27;20885;-64
2022/03/16 21:30:09;;;;;;;59.80;25.40;;;9.30;99.70;;;;;;5112968;28;20484;-65
2022/03/16 21:32:36;;;;;;;60.40;25.90;;;9.30;99.70;;;;;;5112947;28;20536;-64
2022/03/16 21:35:06;;;;;;;58.20;25.83;;;9.30;99.70;;;;;;5107178;28;20461;-63
2022/03/16 21:37:35;;;;;;;58.23;25.60;;;9.30;99.70;;;;;;5102248;28;20473;-65
2022/03/16 21:42:46;;;;;;;57.10;24.47;;;9.30;99.70;;;;;;5111843;28;20834;-64
2022/03/16 21:45:37;;;;;;;54.63;24.40;;;9.30;99.70;;;;;;5110086;28;20449;-64
2022/03/16 21:48:07;;;;;;;53.37;24.03;;;9.30;99.70;;;;;;5105903;28;20976;-64
2022/03/16 21:50:37;;;;;;;54.70;24.93;;;9.20;99.70;;;;;;5112102;28;20487;-65
2022/03/16 21:53:08;;;;;;;55.70;24.27;;;9.20;99.70;;;;;;5111813;28;20898;-65
2022/03/16 21:55:35;;;;;;;54.10;24.50;;;9.20;99.70;;;;;;5105895;28;20779;-64
2022/03/16 21:58:02;;;;;;;54.13;24.33;;;9.20;99.70;;;;;;5108968;28;20489;-65
2022/03/16 22:00:36;;;;;;;56.50;24.37;;;9.20;99.70;;;;;;5109735;28;20460;-64
2022/03/16 22:03:07;;;;;;;53.40;24.17;;;9.20;99.70;;;;;;5105957;28;20497;-64
2022/03/16 22:05:36;;;;;;;56.10;24.20;;;9.20;99.70;;;;;;5103441;28;21042;-64
2022/03/16 22:08:06;;;;;;;55.70;25.00;;;9.10;99.70;;;;;;5107156;28;20500;-64
2022/03/16 22:10:33;;;;;;;51.07;22.90;;;9.10;99.70;;;;;;5112093;28;21002;-64
2022/03/16 22:13:00;;;;;;;53.03;23.67;;;9.10;99.70;;;;;;5110743;28;20494;-62
2022/03/16 22:15:27;;;;;;;55.30;23.77;;;9.20;99.70;;;;;;5111329;28;20456;-64
2022/03/16 22:17:55;;;;;;;52.43;24.30;;;9.20;99.70;;;;;;5111247;28;20457;-63
2022/03/16 22:20:21;;;;;;;49.33;22.63;;;9.20;99.70;;;;;;5109368;28;20441;-64
2022/03/16 22:22:49;;;;;;;53.10;22.77;;;9.10;99.70;;;;;;5109731;28;20436;-64
2022/03/16 22:25:18;;;;;;;50.53;22.80;;;9.10;99.70;;;;;;5110129;28;20449;-64
2022/03/16 22:27:45;;;;;;;51.20;22.37;;;9.10;99.70;;;;;;5109649;28;20556;-63
2022/03/16 22:30:12;;;;;;;52.57;22.77;;;9.10;99.70;;;;;;5115743;27;20476;-64
2022/03/16 22:32:38;;;;;;;50.17;22.60;;;9.20;99.70;;;;;;5104750;28;20450;-63
2022/03/16 22:35:06;;;;;;;49.37;23.20;;;9.20;99.70;;;;;;5102017;28;20464;-64
2022/03/16 22:37:32;;;;;;;50.23;22.20;;;9.10;99.70;;;;;;5109303;28;20465;-65
2022/03/16 22:39:59;;;;;;;53.90;23.37;;;9.10;99.70;;;;;;5110582;28;20486;-64
2022/03/16 22:42:27;;;;;;;50.20;22.20;;;9.10;99.70;;;;;;5110754;28;20441;-63
2022/03/16 22:44:54;;;;;;;51.17;22.97;;;9.10;99.70;;;;;;5111608;28;20448;-64
2022/03/16 22:47:20;;;;;;;48.67;22.13;;;9.10;99.70;;;;;;5111704;28;20472;-63
2022/03/16 22:49:47;;;;;;;53.80;23.20;;;9.10;99.70;;;;;;5110658;28;20468;-64
2022/03/16 22:52:14;;;;;;;49.50;22.57;;;9.10;99.70;;;;;;5097923;28;20526;-64
2022/03/16 22:54:40;;;;;;;54.30;22.60;;;9.00;99.70;;;;;;5090564;28;20446;-63
2022/03/16 22:57:07;;;;;;;52.47;22.43;;;9.00;99.70;;;;;;5090779;28;20480;-64
2022/03/16 22:59:35;;;;;;;48.97;23.10;;;9.00;99.70;;;;;;5091063;28;20503;-64
2022/03/16 23:02:02;;;;;;;51.50;22.63;;;9.00;99.70;;;;;;5091035;28;20433;-64
2022/03/16 23:04:29;;;;;;;49.40;22.80;;;9.00;99.70;;;;;;5088990;28;20449;-64
2022/03/16 23:06:55;;;;;;;54.23;22.97;;;9.00;99.70;;;;;;5088757;28;20478;-64
2022/03/16 23:09:22;;;;;;;51.03;23.17;;;8.90;99.70;;;;;;5089113;28;20934;-64
2022/03/16 23:11:49;;;;;;;48.80;21.90;;;8.90;99.70;;;;;;5088863;28;21017;-64
2022/03/16 23:14:16;;;;;;;47.57;22.60;;;8.90;99.70;;;;;;5089227;28;20437;-64
2022/03/16 23:16:44;;;;;;;51.90;22.40;;;8.90;99.70;;;;;;5088851;28;20513;-64
2022/03/16 23:19:11;;;;;;;55.73;23.33;;;8.90;99.70;;;;;;5089934;28;20495;-65
2022/03/16 23:21:38;;;;;;;44.70;20.27;;;8.90;99.70;;;;;;5091126;28;20438;-64
2022/03/16 23:24:05;;;;;;;51.00;23.07;;;8.90;99.70;;;;;;5090984;28;20445;-64
2022/03/16 23:26:32;;;;;;;51.67;22.40;;;8.90;99.70;;;;;;5090595;28;20474;-64
2022/03/16 23:28:58;;;;;;;52.47;23.93;;;8.90;99.70;;;;;;5090889;28;20457;-63
2022/03/16 23:31:25;;;;;;;52.07;23.53;;;8.80;99.70;;;;;;5090748;28;20478;-64
2022/03/16 23:33:53;;;;;;;55.80;23.87;;;8.80;99.70;;;;;;5090917;28;20855;-65
2022/03/16 23:36:20;;;;;;;53.53;23.23;;;8.80;99.70;;;;;;5089674;28;20461;-64
2022/03/16 23:38:47;;;;;;;50.10;22.93;;;8.80;99.70;;;;;;5090834;28;20442;-64
2022/03/16 23:41:14;;;;;;;53.70;23.40;;;8.80;99.70;;;;;;5091950;28;20438;-64
2022/03/16 23:43:42;;;;;;;57.27;23.67;;;8.80;99.70;;;;;;5090784;28;20567;-64
2022/03/16 23:46:10;;;;;;;55.50;24.50;;;8.80;99.70;;;;;;5090307;28;20446;-64
2022/03/16 23:48:37;;;;;;;54.40;23.80;;;8.80;99.70;;;;;;5090535;28;20466;-63
2022/03/16 23:51:05;;;;;;;50.50;23.20;;;8.80;99.70;;;;;;5090667;28;20478;-65
2022/03/16 23:53:32;;;;;;;54.67;24.70;;;8.80;99.70;;;;;;5090655;28;20471;-63
2022/03/16 23:55:59;;;;;;;52.57;23.80;;;8.80;99.70;;;;;;5090536;28;20755;-64
2022/03/16 23:58:27;;;;;;;52.80;24.00;;;8.80;99.70;;;;;;5090445;28;20539;-64
